Time;durP1;ratioP1;P1;durP2;ratioP2;P2;SDS_P1;SDS_P2;PMS_P1;PMS_P2;Temp;Humidity;BMP_temperature;BMP_pressure;BME280_temperature;BME280_humidity;BME280_pressure;Samples;Min_cycle;Max_cycle;Signal;HPM_P1;HPM_P2
2021/11/13 00:02:05;;;;;;;42.13;21.25;;;22.10;56.30;;;;;;4965536;28;20202;-42
2021/11/13 00:04:35;;;;;;;30.42;16.92;;;22.10;56.50;;;;;;4964131;28;20221;-41
2021/11/13 00:07:08;;;;;;;30.38;17.25;;;22.10;56.60;;;;;;4965819;28;20277;-44
2021/11/13 00:09:38;;;;;;;38.28;17.25;;;22.10;56.70;;;;;;4965695;28;20202;-46
2021/11/13 00:12:10;;;;;;;28.88;16.27;;;22.10;56.70;;;;;;4964720;28;20289;-44
2021/11/13 00:14:41;;;;;;;28.67;15.38;;;22.20;56.80;;;;;;4966939;28;20554;-42
2021/11/13 00:17:12;;;;;;;23.70;13.52;;;22.20;56.90;;;;;;4966470;28;20228;-44
2021/11/13 00:19:42;;;;;;;25.52;14.10;;;22.20;56.80;;;;;;4967289;28;20210;-43
2021/11/13 00:22:15;;;;;;;26.73;13.35;;;22.20;56.70;;;;;;4965494;28;20285;-45
2021/11/13 00:24:45;;;;;;;24.88;12.63;;;22.20;56.80;;;;;;4965647;28;20506;-46
2021/11/13 00:27:16;;;;;;;29.40;14.05;;;22.20;56.70;;;;;;4964461;28;20201;-43
2021/11/13 00:29:46;;;;;;;29.63;12.95;;;22.20;56.60;;;;;;4963574;28;20281;-44
2021/11/13 00:32:17;;;;;;;21.92;12.18;;;22.20;56.60;;;;;;4966910;28;20601;-43
2021/11/13 00:34:47;;;;;;;26.00;12.50;;;22.20;56.60;;;;;;4964319;28;20229;-44
2021/11/13 00:37:20;;;;;;;25.77;11.48;;;22.20;56.50;;;;;;4966280;28;20257;-44
2021/11/13 00:39:51;;;;;;;24.05;11.50;;;22.20;57.10;;;;;;4967262;28;20326;-45
2021/11/13 00:42:21;;;;;;;21.33;11.45;;;22.20;56.50;;;;;;4966810;28;20289;-44
2021/11/13 00:44:51;;;;;;;20.00;11.60;;;22.20;56.70;;;;;;4966039;28;20305;-43
2021/11/13 00:47:22;;;;;;;25.92;11.63;;;22.20;56.50;;;;;;4964179;28;20229;-43
2021/11/13 00:49:53;;;;;;;22.27;11.38;;;22.10;56.50;;;;;;4965769;28;20285;-44
2021/11/13 00:52:25;;;;;;;21.83;10.90;;;22.10;56.40;;;;;;4962266;28;20870;-45
2021/11/13 00:54:55;;;;;;;19.35;11.23;;;22.10;56.40;;;;;;4963342;28;20351;-45
2021/11/13 00:57:26;;;;;;;17.95;10.18;;;22.10;56.50;;;;;;4964942;28;20285;-46
2021/11/13 00:59:56;;;;;;;19.70;10.30;;;22.10;56.40;;;;;;4964494;28;20198;-46
2021/11/13 01:02:27;;;;;;;16.73;10.23;;;22.10;56.40;;;;;;4964431;28;20824;-46
2021/11/13 01:04:57;;;;;;;17.10;9.82;;;22.10;56.40;;;;;;4965388;28;20308;-46
2021/11/13 01:07:30;;;;;;;17.25;9.73;;;22.10;56.40;;;;;;4965418;28;20288;-44
2021/11/13 01:10:00;;;;;;;18.05;10.30;;;22.10;56.40;;;;;;4962540;28;20213;-44
2021/11/13 01:12:31;;;;;;;18.67;9.90;;;22.10;56.40;;;;;;4962611;28;20623;-45
2021/11/13 01:15:01;;;;;;;16.80;9.25;;;22.10;56.30;;;;;;4963267;28;20309;-44
2021/11/13 01:17:32;;;;;;;14.43;8.13;;;22.10;56.40;;;;;;4964719;28;20233;-43
2021/11/13 01:20:02;;;;;;;15.50;8.75;;;22.10;56.40;;;;;;4963586;28;20655;-45
2021/11/13 01:22:35;;;;;;;16.77;9.00;;;22.20;56.50;;;;;;4966324;28;20561;-43
2021/11/13 01:25:05;;;;;;;17.20;8.80;;;22.10;56.50;;;;;;4965805;28;20629;-43
2021/11/13 01:27:36;;;;;;;14.30;7.90;;;22.20;56.50;;;;;;4965967;28;20640;-44
2021/11/13 01:30:08;;;;;;;15.40;8.63;;;22.20;56.40;;;;;;4963718;28;20293;-45
2021/11/13 01:32:39;;;;;;;11.77;7.32;;;22.20;56.50;;;;;;4963431;28;20217;-44
2021/11/13 01:35:11;;;;;;;13.07;7.50;;;22.20;56.40;;;;;;4964563;28;20305;-45
2021/11/13 01:37:44;;;;;;;13.25;7.57;;;22.20;56.40;;;;;;4964531;28;20730;-43
2021/11/13 01:40:19;;;;;;;12.35;6.60;;;22.20;56.50;;;;;;4960511;28;20225;-43
2021/11/13 01:42:50;;;;;;;11.57;6.07;;;22.20;56.60;;;;;;4962705;28;20195;-44
2021/11/13 01:45:21;;;;;;;12.32;6.30;;;22.20;56.60;;;;;;4965039;28;20688;-46
2021/11/13 01:47:52;;;;;;;13.15;6.38;;;22.30;56.60;;;;;;4965812;28;20311;-45
2021/11/13 01:50:25;;;;;;;12.45;6.63;;;22.30;56.50;;;;;;4965980;28;20288;-44
2021/11/13 01:52:58;;;;;;;10.88;6.18;;;22.30;56.50;;;;;;4965546;28;20220;-44
2021/11/13 01:55:33;;;;;;;10.00;6.18;;;22.40;56.40;;;;;;4964998;28;20642;-44
2021/11/13 01:58:04;;;;;;;11.20;6.57;;;22.40;56.40;;;;;;4964435;28;20216;-44
2021/11/13 02:00:39;;;;;;;9.93;5.40;;;22.40;56.40;;;;;;4964621;28;20212;-44
2021/11/13 02:03:10;;;;;;;11.73;6.03;;;22.50;56.30;;;;;;4965412;28;20221;-44
2021/11/13 02:05:41;;;;;;;11.15;5.63;;;22.50;56.30;;;;;;4963767;28;20294;-44
2021/11/13 02:08:13;;;;;;;10.38;6.28;;;22.50;56.30;;;;;;4963947;28;20218;-44
2021/11/13 02:10:43;;;;;;;11.52;5.95;;;22.50;56.30;;;;;;4965180;28;20294;-44
2021/11/13 02:13:14;;;;;;;9.88;5.50;;;22.50;56.30;;;;;;4966722;28;20305;-44
2021/11/13 02:15:45;;;;;;;10.52;4.90;;;22.50;56.20;;;;;;4968729;28;20281;-45
2021/11/13 02:18:15;;;;;;;9.88;5.15;;;22.60;56.80;;;;;;4966244;28;20706;-44
2021/11/13 02:20:47;;;;;;;8.48;4.45;;;22.60;56.20;;;;;;4968346;28;20220;-44
2021/11/13 02:23:20;;;;;;;10.27;4.68;;;22.60;56.10;;;;;;4968514;28;20228;-44
2021/11/13 02:25:52;;;;;;;8.18;4.57;;;22.60;56.00;;;;;;4967933;28;20206;-37
2021/11/13 02:28:24;;;;;;;4.70;2.10;;;22.70;55.90;;;;;;4966703;28;20317;-39
2021/11/13 02:30:55;;;;;;;4.50;1.60;;;22.70;54.10;;;;;;4967452;28;20286;-43
2021/11/13 02:33:26;;;;;;;6.38;1.60;;;22.60;53.10;;;;;;4968104;28;20228;-45
2021/11/13 02:36:00;;;;;;;6.00;1.65;;;22.50;52.90;;;;;;4966728;28;20285;-46
2021/11/13 02:38:33;;;;;;;4.65;1.30;;;22.40;52.40;;;;;;4969308;28;20222;-41
2021/11/13 02:41:05;;;;;;;4.25;1.80;;;22.30;52.30;;;;;;4968022;28;20206;-39
2021/11/13 02:43:36;;;;;;;8.18;1.80;;;22.20;52.50;;;;;;4968250;28;20324;-46
2021/11/13 02:46:08;;;;;;;5.93;1.50;;;22.20;52.80;;;;;;4966095;28;20238;-49
2021/11/13 02:48:42;;;;;;;8.07;2.20;;;22.10;52.70;;;;;;4964962;28;20313;-40
2021/11/13 02:51:15;;;;;;;8.07;2.25;;;22.00;52.80;;;;;;4969045;28;20249;-47
2021/11/13 02:53:52;;;;;;;8.00;1.83;;;21.90;52.80;;;;;;4966739;28;20258;-42
2021/11/13 02:56:23;;;;;;;6.82;1.73;;;21.80;53.20;;;;;;4965939;28;21476;-49
2021/11/13 02:58:53;;;;;;;6.32;1.88;;;21.80;53.10;;;;;;4966880;28;20202;-46
2021/11/13 03:01:25;;;;;;;7.00;2.30;;;21.70;53.40;;;;;;4967555;28;20298;-37
2021/11/13 03:03:57;;;;;;;5.43;1.70;;;21.60;53.60;;;;;;4967255;28;20305;-38
2021/11/13 03:06:29;;;;;;;5.07;1.77;;;21.50;53.80;;;;;;4966060;28;20642;-38
2021/11/13 03:09:00;;;;;;;5.80;1.70;;;21.50;53.80;;;;;;4967833;28;20230;-39
2021/11/13 03:11:31;;;;;;;6.57;1.55;;;21.40;53.80;;;;;;4966677;28;20198;-45
2021/11/13 03:14:01;;;;;;;8.73;2.28;;;21.30;53.80;;;;;;4965630;28;20305;-48
2021/11/13 03:16:32;;;;;;;9.40;2.03;;;21.30;54.10;;;;;;4966378;28;20210;-52
2021/11/13 03:19:04;;;;;;;4.85;1.55;;;21.20;54.20;;;;;;4964884;28;20665;-55
2021/11/13 03:21:37;;;;;;;4.90;1.50;;;21.30;54.40;;;;;;4967155;28;20203;-54
2021/11/13 03:24:07;;;;;;;7.03;1.75;;;21.30;54.50;;;;;;4969091;28;20214;-48
2021/11/13 03:26:39;;;;;;;4.85;1.50;;;21.30;54.60;;;;;;4967432;28;20285;-49
2021/11/13 03:29:14;;;;;;;6.90;1.73;;;21.30;54.60;;;;;;4965804;28;20218;-51
2021/11/13 03:31:45;;;;;;;5.80;1.80;;;21.40;54.70;;;;;;4967218;28;20284;-51
2021/11/13 03:34:15;;;;;;;4.68;1.80;;;21.40;54.70;;;;;;4966989;28;20316;-50
2021/11/13 03:36:48;;;;;;;4.57;1.60;;;21.50;54.70;;;;;;4962828;28;20282;-57
2021/11/13 03:39:18;;;;;;;4.07;1.50;;;21.50;54.80;;;;;;4965008;28;20733;-48
2021/11/13 03:41:49;;;;;;;7.88;2.35;;;21.60;54.90;;;;;;4966579;28;20310;-50
2021/11/13 03:44:19;;;;;;;4.30;1.83;;;21.60;55.10;;;;;;4966303;28;20230;-54
2021/11/13 03:46:53;;;;;;;8.43;2.05;;;21.70;55.10;;;;;;4966305;28;20293;-54
2021/11/13 03:49:24;;;;;;;5.72;1.98;;;21.70;55.80;;;;;;4966800;28;20236;-46
2021/11/13 03:51:57;;;;;;;5.03;2.03;;;21.80;55.30;;;;;;4968406;28;20289;-53
2021/11/13 03:54:28;;;;;;;5.95;2.15;;;21.80;55.30;;;;;;4965376;28;20229;-53
2021/11/13 03:56:59;;;;;;;7.40;1.90;;;21.80;55.30;;;;;;4964906;28;20206;-55
2021/11/13 03:59:29;;;;;;;3.55;1.60;;;21.90;55.20;;;;;;4967041;28;20206;-55
2021/11/13 04:02:00;;;;;;;5.53;1.83;;;22.00;55.30;;;;;;4965850;28;20281;-53
2021/11/13 04:04:31;;;;;;;6.35;1.77;;;22.00;55.20;;;;;;4965378;28;20222;-50
2021/11/13 04:07:03;;;;;;;5.50;1.80;;;22.10;55.20;;;;;;4966139;28;20242;-57
2021/11/13 04:09:33;;;;;;;5.50;2.03;;;22.10;55.20;;;;;;4968166;28;20236;-54
2021/11/13 04:12:06;;;;;;;4.35;1.80;;;22.20;55.20;;;;;;4966488;28;20633;-46
2021/11/13 04:14:39;;;;;;;4.43;1.70;;;22.20;55.20;;;;;;4964304;28;20276;-49
2021/11/13 04:17:10;;;;;;;6.10;1.73;;;22.30;55.20;;;;;;4964839;28;20202;-54
2021/11/13 04:19:40;;;;;;;7.25;1.80;;;22.40;55.00;;;;;;4963331;28;20281;-53
2021/11/13 04:22:13;;;;;;;3.88;1.65;;;22.40;55.00;;;;;;4966438;28;20294;-50
2021/11/13 04:24:43;;;;;;;6.88;1.67;;;22.50;55.00;;;;;;4966102;28;20297;-51
2021/11/13 04:27:15;;;;;;;5.60;1.77;;;22.50;54.80;;;;;;4963864;28;20282;-49
2021/11/13 04:29:46;;;;;;;5.18;1.95;;;22.50;54.80;;;;;;4966059;28;20261;-57
2021/11/13 04:32:18;;;;;;;4.65;2.00;;;22.60;54.80;;;;;;4966802;28;20194;-52
2021/11/13 04:34:52;;;;;;;6.30;2.13;;;22.70;54.70;;;;;;4964746;28;20276;-50
2021/11/13 04:37:24;;;;;;;5.25;2.05;;;22.70;54.60;;;;;;4965188;28;20194;-54
2021/11/13 04:39:55;;;;;;;4.97;1.75;;;22.70;54.50;;;;;;4965246;28;20217;-51
2021/11/13 04:42:26;;;;;;;5.05;1.73;;;22.80;54.50;;;;;;4965323;28;20198;-56
2021/11/13 04:44:56;;;;;;;5.72;1.85;;;22.80;54.60;;;;;;4964189;28;20769;-52
2021/11/13 04:47:26;;;;;;;4.78;1.73;;;22.90;54.60;;;;;;4965540;28;20224;-50
2021/11/13 04:49:57;;;;;;;6.07;1.73;;;22.90;54.40;;;;;;4964739;28;20386;-53
2021/11/13 04:52:29;;;;;;;4.55;1.80;;;23.00;54.40;;;;;;4966549;28;20198;-50
2021/11/13 04:55:00;;;;;;;3.47;1.65;;;23.00;54.30;;;;;;4964006;28;20340;-52
2021/11/13 04:57:31;;;;;;;4.53;1.60;;;23.00;54.30;;;;;;4965917;28;20701;-49
2021/11/13 05:00:01;;;;;;;8.07;2.50;;;23.10;54.20;;;;;;4964773;28;20221;-49
2021/11/13 05:02:32;;;;;;;3.80;1.75;;;23.10;54.10;;;;;;4966799;28;20206;-49
2021/11/13 05:05:02;;;;;;;5.45;1.80;;;23.20;54.10;;;;;;4964864;28;20220;-51
2021/11/13 05:07:34;;;;;;;3.05;1.67;;;23.20;54.00;;;;;;4964308;28;20284;-46
2021/11/13 05:10:05;;;;;;;5.55;1.90;;;23.20;54.00;;;;;;4964280;28;20305;-50
2021/11/13 05:12:36;;;;;;;4.07;1.75;;;23.30;53.90;;;;;;4964934;28;20305;-52
2021/11/13 05:15:07;;;;;;;5.80;1.90;;;23.30;53.90;;;;;;4965598;28;20305;-53
2021/11/13 05:17:37;;;;;;;6.70;2.10;;;23.30;53.80;;;;;;4963658;28;20667;-47
2021/11/13 05:20:09;;;;;;;4.88;1.92;;;23.30;53.80;;;;;;4964566;28;20286;-57
2021/11/13 05:22:43;;;;;;;3.65;1.55;;;23.40;53.70;;;;;;4965862;28;20233;-50
2021/11/13 05:25:16;;;;;;;4.95;1.67;;;23.30;53.60;;;;;;4965307;28;20766;-56
2021/11/13 05:27:47;;;;;;;4.90;1.92;;;23.40;53.60;;;;;;4963304;28;20289;-57
2021/11/13 05:30:18;;;;;;;4.03;1.80;;;23.40;53.50;;;;;;4964432;28;20240;-50
2021/11/13 05:32:49;;;;;;;5.07;1.95;;;23.40;53.50;;;;;;4963582;28;20277;-50
2021/11/13 05:35:20;;;;;;;5.13;1.98;;;23.50;53.50;;;;;;4963844;28;20293;-48
2021/11/13 05:37:53;;;;;;;3.42;1.80;;;23.50;53.50;;;;;;4964502;28;20204;-47
2021/11/13 05:40:24;;;;;;;5.10;1.85;;;23.50;53.50;;;;;;4966296;28;20294;-47
2021/11/13 05:42:55;;;;;;;7.60;2.10;;;23.50;53.40;;;;;;4965693;28;20301;-52
2021/11/13 05:45:26;;;;;;;4.53;2.33;;;23.50;53.40;;;;;;4963686;28;20199;-45
2021/11/13 05:47:57;;;;;;;5.72;2.17;;;23.50;53.30;;;;;;4963749;28;20202;-47
2021/11/13 05:50:28;;;;;;;3.80;1.65;;;23.50;53.30;;;;;;4967075;28;20224;-49
2021/11/13 05:53:00;;;;;;;4.22;1.85;;;23.60;53.30;;;;;;4969424;28;20206;-46
2021/11/13 05:55:31;;;;;;;4.53;1.75;;;23.60;53.30;;;;;;4968224;28;20206;-52
2021/11/13 05:58:01;;;;;;;4.50;1.95;;;23.60;53.30;;;;;;4966814;28;20230;-45
2021/11/13 06:00:32;;;;;;;4.85;2.10;;;23.60;53.30;;;;;;4967870;28;20253;-49
2021/11/13 06:03:02;;;;;;;4.35;2.03;;;23.60;53.30;;;;;;4968748;28;20289;-49
2021/11/13 06:05:33;;;;;;;5.60;2.13;;;23.60;53.30;;;;;;4968615;28;20718;-49
2021/11/13 06:08:05;;;;;;;6.28;2.33;;;23.60;53.30;;;;;;4967845;28;20863;-48
2021/11/13 06:10:36;;;;;;;6.60;2.00;;;23.60;53.30;;;;;;4968056;28;20230;-49
2021/11/13 06:13:06;;;;;;;5.97;1.95;;;23.60;53.30;;;;;;4967563;28;20298;-51
2021/11/13 06:15:37;;;;;;;5.15;2.10;;;23.60;53.30;;;;;;4967353;28;20293;-46
2021/11/13 06:18:08;;;;;;;5.15;2.03;;;23.60;53.30;;;;;;4969115;28;20233;-47
2021/11/13 06:20:39;;;;;;;4.75;2.10;;;23.60;53.20;;;;;;4966123;28;20207;-46
2021/11/13 06:23:11;;;;;;;4.35;1.52;;;23.60;53.10;;;;;;4967306;28;20202;-48
2021/11/13 06:25:42;;;;;;;3.60;1.80;;;23.60;53.20;;;;;;4969431;28;20659;-46
2021/11/13 06:28:12;;;;;;;5.15;2.00;;;23.60;53.20;;;;;;4968797;28;20277;-51
2021/11/13 06:30:43;;;;;;;4.20;2.00;;;23.60;53.20;;;;;;4954223;28;20231;-50
2021/11/13 06:33:13;;;;;;;5.90;1.92;;;23.60;53.80;;;;;;4967959;28;20234;-47
2021/11/13 06:35:44;;;;;;;5.95;2.30;;;23.60;53.30;;;;;;4966692;28;20262;-46
2021/11/13 06:38:16;;;;;;;5.28;2.00;;;23.60;53.20;;;;;;4968013;28;20298;-52
2021/11/13 06:40:47;;;;;;;7.65;3.00;;;23.60;53.20;;;;;;4966560;28;20673;-47
2021/11/13 06:43:17;;;;;;;8.07;2.30;;;23.60;53.00;;;;;;4964928;28;20603;-53
2021/11/13 06:45:48;;;;;;;5.22;2.38;;;23.50;52.90;;;;;;4966593;28;20285;-47
2021/11/13 06:48:20;;;;;;;6.32;2.35;;;23.50;52.90;;;;;;4966321;28;20298;-45
2021/11/13 06:50:52;;;;;;;9.38;2.38;;;23.50;52.90;;;;;;4968397;28;20456;-47
2021/11/13 06:53:24;;;;;;;7.22;2.60;;;23.50;53.00;;;;;;4967795;28;20229;-50
2021/11/13 06:55:55;;;;;;;7.70;2.50;;;23.50;53.00;;;;;;4966024;28;20286;-53
2021/11/13 06:58:25;;;;;;;6.63;2.60;;;23.40;52.90;;;;;;4967805;28;20285;-50
2021/11/13 07:00:55;;;;;;;7.40;2.45;;;23.50;53.10;;;;;;4954929;28;20297;-47
2021/11/13 07:03:26;;;;;;;7.97;2.97;;;23.50;53.10;;;;;;4965851;28;20220;-46
2021/11/13 07:05:56;;;;;;;6.85;2.65;;;23.40;53.00;;;;;;4966507;28;20285;-45
2021/11/13 07:08:29;;;;;;;5.70;2.67;;;23.40;53.10;;;;;;4966246;28;20206;-50
2021/11/13 07:10:59;;;;;;;6.35;2.45;;;23.40;53.20;;;;;;4966823;28;20222;-51
2021/11/13 07:13:30;;;;;;;8.43;2.58;;;23.40;53.20;;;;;;4968475;28;20312;-49
2021/11/13 07:16:00;;;;;;;6.60;2.30;;;23.40;53.20;;;;;;4967034;28;20873;-52
2021/11/13 07:18:31;;;;;;;4.70;1.95;;;23.40;53.30;;;;;;4965145;28;20251;-49
2021/11/13 07:21:05;;;;;;;6.45;2.17;;;23.40;53.30;;;;;;4966370;28;20206;-52
2021/11/13 07:23:38;;;;;;;5.57;2.42;;;23.30;53.20;;;;;;4966263;28;20253;-50
2021/11/13 07:26:11;;;;;;;9.23;2.50;;;23.30;53.30;;;;;;4965114;28;20313;-48
2021/11/13 07:28:42;;;;;;;7.88;2.40;;;23.30;53.30;;;;;;4966238;28;20210;-46
2021/11/13 07:31:16;;;;;;;5.57;2.20;;;23.30;53.30;;;;;;4961098;28;20234;-47
2021/11/13 07:33:49;;;;;;;5.10;2.50;;;23.30;53.30;;;;;;4958952;28;20233;-52
2021/11/13 07:36:19;;;;;;;4.90;2.30;;;23.30;53.40;;;;;;4968544;28;20278;-51
2021/11/13 07:38:52;;;;;;;10.95;2.63;;;23.30;53.50;;;;;;4968703;28;20284;-48
2021/11/13 07:41:24;;;;;;;4.60;2.15;;;23.30;53.50;;;;;;4965808;28;20198;-48
2021/11/13 07:43:55;;;;;;;6.97;2.22;;;23.20;53.40;;;;;;4963918;28;20257;-50
2021/11/13 07:46:26;;;;;;;5.15;2.42;;;23.20;53.30;;;;;;4967955;28;20710;-46
2021/11/13 07:48:56;;;;;;;5.60;2.13;;;23.20;53.30;;;;;;4966107;28;20202;-50
2021/11/13 07:51:27;;;;;;;5.82;2.40;;;23.20;53.40;;;;;;4965912;28;20317;-47
2021/11/13 07:53:59;;;;;;;6.95;2.75;;;23.20;53.50;;;;;;4967223;28;20305;-50
2021/11/13 07:56:29;;;;;;;5.78;2.38;;;23.20;53.50;;;;;;4967253;28;20198;-46
2021/11/13 07:59:00;;;;;;;5.32;2.35;;;23.20;53.60;;;;;;4966503;28;20240;-49
2021/11/13 08:01:31;;;;;;;4.68;2.10;;;23.20;53.60;;;;;;4965752;28;20638;-48
2021/11/13 08:04:01;;;;;;;5.82;2.10;;;23.10;53.60;;;;;;4953114;28;20226;-48
2021/11/13 08:06:31;;;;;;;6.75;2.53;;;23.20;53.70;;;;;;4965256;28;20202;-46
2021/11/13 08:09:04;;;;;;;4.93;2.25;;;23.10;53.70;;;;;;4965570;28;20289;-47
2021/11/13 08:11:35;;;;;;;5.68;2.40;;;23.10;53.70;;;;;;4965414;28;20310;-57
2021/11/13 08:14:05;;;;;;;5.32;2.08;;;23.10;53.70;;;;;;4960759;28;20790;-51
2021/11/13 08:16:36;;;;;;;5.45;2.13;;;23.10;53.70;;;;;;4965446;28;20287;-56
2021/11/13 08:19:07;;;;;;;5.32;2.70;;;23.10;53.70;;;;;;4965398;28;20678;-53
2021/11/13 08:21:37;;;;;;;5.15;2.47;;;23.00;53.80;;;;;;4966073;28;20225;-50
2021/11/13 08:24:18;;;;;;;5.82;2.92;;;23.00;53.80;;;;;;4966282;28;20645;-46
2021/11/13 08:26:48;;;;;;;4.45;2.30;;;23.00;54.20;;;;;;4965489;28;20202;-46
2021/11/13 08:29:19;;;;;;;5.35;2.42;;;23.00;53.90;;;;;;4964164;28;20289;-50
2021/11/13 08:31:49;;;;;;;5.32;2.47;;;23.00;53.90;;;;;;4964396;28;20226;-52
2021/11/13 08:34:20;;;;;;;4.82;2.28;;;22.90;53.90;;;;;;4966402;28;20221;-49
2021/11/13 08:36:50;;;;;;;5.75;2.55;;;22.90;53.90;;;;;;4966229;28;20281;-53
2021/11/13 08:39:23;;;;;;;5.90;2.58;;;22.90;53.80;;;;;;4965324;28;20204;-50
2021/11/13 08:41:54;;;;;;;7.25;2.40;;;22.90;53.90;;;;;;4966152;28;20582;-58
2021/11/13 08:44:24;;;;;;;5.93;2.42;;;22.90;53.90;;;;;;4966331;28;20230;-48
2021/11/13 08:46:56;;;;;;;4.65;2.17;;;22.90;53.80;;;;;;4966137;28;20288;-53
2021/11/13 08:49:26;;;;;;;5.32;2.30;;;22.90;53.90;;;;;;4966299;28;20253;-55
2021/11/13 08:51:57;;;;;;;7.28;2.70;;;22.80;53.80;;;;;;4963822;28;20229;-54
2021/11/13 08:54:29;;;;;;;5.13;2.60;;;22.80;53.80;;;;;;4964156;28;20308;-58
2021/11/13 08:56:59;;;;;;;4.88;2.30;;;22.80;53.90;;;;;;4964223;28;20753;-55
2021/11/13 08:59:30;;;;;;;5.90;2.55;;;22.80;54.00;;;;;;4963478;28;20298;-49
2021/11/13 09:02:01;;;;;;;5.60;2.60;;;22.80;54.00;;;;;;4964865;28;20294;-52
2021/11/13 09:04:32;;;;;;;4.10;2.17;;;22.80;54.00;;;;;;4963700;28;20226;-51
2021/11/13 09:07:03;;;;;;;4.03;2.20;;;22.70;54.00;;;;;;4964837;28;20273;-53
2021/11/13 09:09:37;;;;;;;5.38;2.50;;;22.70;54.00;;;;;;4966525;28;20289;-48
2021/11/13 09:12:09;;;;;;;5.30;2.47;;;22.70;54.60;;;;;;4965552;28;20226;-55
2021/11/13 09:14:41;;;;;;;6.35;2.53;;;22.70;54.00;;;;;;4963097;28;20233;-56
2021/11/13 09:17:11;;;;;;;4.18;2.17;;;22.60;54.00;;;;;;4964439;28;20290;-50
2021/11/13 09:19:42;;;;;;;3.97;2.20;;;22.60;54.00;;;;;;4965098;28;20293;-54
2021/11/13 09:22:12;;;;;;;6.00;2.28;;;22.60;54.10;;;;;;4962476;28;20718;-49
2021/11/13 09:24:45;;;;;;;5.75;2.38;;;22.60;54.10;;;;;;4965057;28;20225;-52
2021/11/13 09:27:15;;;;;;;3.58;2.15;;;22.60;54.10;;;;;;4966518;28;20710;-56
2021/11/13 09:29:46;;;;;;;2.88;2.15;;;22.60;54.20;;;;;;4965035;28;20289;-49
2021/11/13 09:32:16;;;;;;;3.80;2.08;;;22.60;54.20;;;;;;4966606;28;20317;-56
2021/11/13 09:34:47;;;;;;;4.75;2.30;;;22.60;54.20;;;;;;4964859;28;20224;-54
2021/11/13 09:37:17;;;;;;;4.15;1.90;;;22.50;54.10;;;;;;4965211;28;20559;-54
2021/11/13 09:39:49;;;;;;;4.47;2.00;;;22.50;54.10;;;;;;4964181;28;20670;-56
2021/11/13 09:42:21;;;;;;;5.22;2.35;;;22.50;54.10;;;;;;4963861;28;20289;-49
2021/11/13 09:44:52;;;;;;;5.50;1.92;;;22.50;54.10;;;;;;4966517;28;20234;-50
2021/11/13 09:47:23;;;;;;;4.30;2.28;;;22.50;54.10;;;;;;4963771;28;20778;-49
2021/11/13 09:49:54;;;;;;;5.88;2.40;;;22.50;54.20;;;;;;4963992;28;20281;-51
2021/11/13 09:52:25;;;;;;;3.70;1.90;;;22.50;54.30;;;;;;4966949;28;20784;-46
2021/11/13 09:54:59;;;;;;;3.58;2.20;;;22.50;54.30;;;;;;4966670;28;20246;-51
2021/11/13 09:57:29;;;;;;;3.38;1.90;;;22.40;54.30;;;;;;4964452;28;20210;-49
2021/11/13 10:00:00;;;;;;;4.72;2.03;;;22.40;54.30;;;;;;4964074;28;20206;-51
2021/11/13 10:02:30;;;;;;;4.75;2.00;;;22.40;54.30;;;;;;4966472;28;20202;-53
2021/11/13 10:05:01;;;;;;;5.55;2.33;;;22.40;54.30;;;;;;4961531;28;20325;-53
2021/11/13 10:07:33;;;;;;;3.70;1.98;;;22.40;54.30;;;;;;4963546;28;20198;-50
2021/11/13 10:10:06;;;;;;;2.95;1.80;;;22.30;54.20;;;;;;4963617;28;20205;-56
2021/11/13 10:12:38;;;;;;;3.70;2.13;;;22.30;54.30;;;;;;4965033;28;20313;-53
2021/11/13 10:15:34;;;;;;;4.57;2.53;;;22.30;54.30;;;;;;4964822;28;20624;-54
2021/11/13 10:18:11;;;;;;;3.53;2.22;;;22.30;54.20;;;;;;4963821;28;20650;-57
2021/11/13 10:20:47;;;;;;;3.75;2.17;;;22.30;54.30;;;;;;4962724;28;20289;-54
2021/11/13 10:23:34;;;;;;;4.75;2.50;;;22.30;54.30;;;;;;4962402;28;20821;-54
2021/11/13 10:26:08;;;;;;;4.18;2.35;;;22.30;54.30;;;;;;4964283;28;20217;-52
2021/11/13 10:28:46;;;;;;;4.03;2.03;;;22.30;54.30;;;;;;4963738;28;20677;-50
2021/11/13 10:31:20;;;;;;;3.95;2.15;;;22.30;54.40;;;;;;4965862;28;20222;-49
2021/11/13 10:33:51;;;;;;;5.60;3.65;;;22.20;54.20;;;;;;4964131;28;20768;-47
2021/11/13 10:36:31;;;;;;;7.38;3.30;;;22.20;54.80;;;;;;4963536;28;20300;-53
2021/11/13 10:39:04;;;;;;;6.75;3.67;;;22.20;54.40;;;;;;4965189;28;20723;-52
2021/11/13 10:41:45;;;;;;;8.13;4.30;;;22.20;54.40;;;;;;4965864;28;20298;-55
2021/11/13 10:44:16;;;;;;;10.38;4.53;;;22.20;54.50;;;;;;4966169;28;21528;-55
2021/11/13 10:46:48;;;;;;;7.68;4.43;;;22.20;54.50;;;;;;4966121;28;20698;-55
2021/11/13 10:49:19;;;;;;;9.02;4.38;;;22.20;54.60;;;;;;4965288;28;20221;-50
2021/11/13 10:51:54;;;;;;;6.82;4.03;;;22.20;54.60;;;;;;4964330;28;20254;-50
2021/11/13 10:54:25;;;;;;;6.93;3.97;;;22.20;54.60;;;;;;4966836;28;20826;-49
2021/11/13 10:56:59;;;;;;;8.13;4.65;;;22.20;54.60;;;;;;4961589;28;20284;-53
2021/11/13 10:59:30;;;;;;;8.57;4.18;;;22.20;54.70;;;;;;4949602;28;20308;-58
2021/11/13 11:02:02;;;;;;;7.50;4.15;;;22.20;55.30;;;;;;4964576;28;20281;-51
2021/11/13 11:04:34;;;;;;;6.93;4.35;;;22.20;54.70;;;;;;4965781;28;20308;-54
2021/11/13 11:07:10;;;;;;;7.18;3.90;;;22.10;54.70;;;;;;4963386;28;20763;-50
2021/11/13 11:09:42;;;;;;;6.88;4.35;;;22.10;54.80;;;;;;4963880;28;20301;-55
2021/11/13 11:12:16;;;;;;;7.25;4.45;;;22.10;54.70;;;;;;4963442;28;20230;-51
2021/11/13 11:14:50;;;;;;;6.75;3.88;;;22.10;54.70;;;;;;4964725;28;20309;-51
2021/11/13 11:17:22;;;;;;;6.55;4.00;;;22.10;54.70;;;;;;4968080;28;20194;-48
2021/11/13 11:19:53;;;;;;;9.35;4.40;;;22.10;54.70;;;;;;4953544;28;20278;-52
2021/11/13 11:22:27;;;;;;;7.10;4.20;;;22.10;54.70;;;;;;4952005;28;20294;-47
2021/11/13 11:24:58;;;;;;;6.53;3.97;;;22.10;54.70;;;;;;4951281;28;20218;-53
2021/11/13 11:27:34;;;;;;;7.82;4.43;;;22.00;55.20;;;;;;4950794;28;20279;-52
2021/11/13 11:30:06;;;;;;;7.10;4.05;;;22.00;54.60;;;;;;4952167;28;20230;-49
2021/11/13 11:32:39;;;;;;;6.15;4.22;;;22.00;54.60;;;;;;4935153;28;20826;-48
2021/11/13 11:35:14;;;;;;;5.43;3.80;;;21.90;54.60;;;;;;4950463;28;20223;-52
2021/11/13 11:37:46;;;;;;;6.13;3.50;;;21.90;54.50;;;;;;4950476;28;20203;-49
2021/11/13 11:40:20;;;;;;;7.05;3.92;;;21.90;54.60;;;;;;4950324;28;20277;-59
2021/11/13 11:42:53;;;;;;;6.13;3.90;;;21.90;54.50;;;;;;4950195;28;20292;-50
2021/11/13 11:45:25;;;;;;;5.28;3.65;;;21.90;54.70;;;;;;4935121;29;20747;-54
2021/11/13 11:47:58;;;;;;;7.82;4.38;;;21.90;54.50;;;;;;4949477;28;20195;-52
2021/11/13 11:50:31;;;;;;;6.63;3.30;;;21.80;54.50;;;;;;4949057;28;20293;-49
2021/11/13 11:53:05;;;;;;;7.55;3.53;;;21.80;54.50;;;;;;4949396;28;20317;-50
2021/11/13 11:55:36;;;;;;;4.82;3.35;;;21.80;54.50;;;;;;4949735;28;20270;-46
2021/11/13 11:58:13;;;;;;;6.45;3.30;;;21.80;54.60;;;;;;4951425;28;20290;-48
2021/11/13 12:00:44;;;;;;;6.47;3.30;;;21.80;54.40;;;;;;4943886;29;20259;-51
2021/11/13 12:03:24;;;;;;;5.60;3.65;;;21.80;54.40;;;;;;4950342;29;20222;-47
2021/11/13 12:05:56;;;;;;;6.15;3.15;;;21.70;54.40;;;;;;4939469;28;20199;-47
2021/11/13 12:08:28;;;;;;;6.38;3.88;;;21.70;54.50;;;;;;4943487;29;20290;-46
2021/11/13 12:11:20;;;;;;;6.53;3.63;;;21.70;54.50;;;;;;4949722;28;20290;-51
2021/11/13 12:13:54;;;;;;;6.30;3.47;;;21.60;54.50;;;;;;4950081;28;20230;-48
2021/11/13 12:16:28;;;;;;;4.85;2.97;;;21.60;54.40;;;;;;4935301;29;20198;-45
2021/11/13 12:18:59;;;;;;;5.78;3.53;;;21.60;54.50;;;;;;4950465;28;20282;-49
2021/11/13 12:21:32;;;;;;;4.95;3.17;;;21.60;54.50;;;;;;4939438;28;20381;-50
2021/11/13 12:24:08;;;;;;;4.00;2.85;;;21.50;54.40;;;;;;4944489;29;20226;-50
2021/11/13 12:26:40;;;;;;;5.80;3.28;;;21.50;54.40;;;;;;4948999;28;20281;-45
2021/11/13 12:29:16;;;;;;;4.00;2.67;;;21.50;54.40;;;;;;4949894;28;20211;-51
2021/11/13 12:31:50;;;;;;;6.47;3.25;;;21.50;54.40;;;;;;4950967;28;20588;-47
2021/11/13 12:34:24;;;;;;;6.45;3.28;;;21.50;54.40;;;;;;4949052;28;20249;-52
2021/11/13 12:36:59;;;;;;;6.40;3.20;;;21.50;54.50;;;;;;4948790;28;20207;-49
2021/11/13 12:39:31;;;;;;;5.53;3.33;;;21.40;54.50;;;;;;4942813;28;20202;-52
2021/11/13 12:42:05;;;;;;;5.68;3.40;;;21.40;54.50;;;;;;4940143;29;20211;-48
2021/11/13 12:44:44;;;;;;;6.63;3.05;;;21.40;54.50;;;;;;4950503;28;20241;-50
2021/11/13 12:47:19;;;;;;;4.53;3.15;;;21.40;54.60;;;;;;4948096;29;20826;-52
2021/11/13 12:49:52;;;;;;;4.22;3.00;;;21.40;54.60;;;;;;4949216;28;20585;-48
2021/11/13 12:52:30;;;;;;;5.03;2.95;;;21.30;54.50;;;;;;4948877;28;20321;-46
2021/11/13 12:55:26;;;;;;;5.38;2.80;;;21.30;54.50;;;;;;4948924;28;20274;-52
2021/11/13 12:58:10;;;;;;;4.82;2.63;;;21.30;54.60;;;;;;4948973;28;20213;-51
2021/11/13 13:00:49;;;;;;;5.25;3.00;;;21.30;54.60;;;;;;4949105;28;20227;-51
2021/11/13 13:03:27;;;;;;;6.45;3.33;;;21.20;54.60;;;;;;4949079;28;20238;-53
2021/11/13 13:06:06;;;;;;;5.20;2.97;;;21.20;54.60;;;;;;4948078;28;20217;-49
2021/11/13 13:08:37;;;;;;;4.53;2.90;;;21.20;54.60;;;;;;4949239;29;20202;-47